Time;durP1;ratioP1;P1;durP2;ratioP2;P2;SDS_P1;SDS_P2;PMS_P1;PMS_P2;Temp;Humidity;BMP_temperature;BMP_pressure;BME280_temperature;BME280_humidity;BME280_pressure;Samples;Min_cycle;Max_cycle;Signal;HPM_P1;HPM_P2
2024/01/21 00:03:23;;;;;;;23.20;11.60;;;;;;;;;;103786;1295;544943;-72
2024/01/21 00:07:01;;;;;;;20.20;11.70;;;;;;;;;;103708;1291;544812;-72
2024/01/21 00:10:39;;;;;;;20.00;10.30;;;;;;;;;;103658;1289;544806;-71
2024/01/21 00:14:15;;;;;;;17.60;9.40;;;;;;;;;;104055;1289;545996;-72
2024/01/21 00:18:13;;;;;;;16.40;9.10;;;;;;;;;;103596;1292;547772;-71
2024/01/21 00:21:31;;;;;;;19.60;10.30;;;;;;;;;;103684;1291;545283;-71
2024/01/21 00:25:06;;;;;;;20.40;11.00;;;;;;;;;;103691;1292;545979;-72
2024/01/21 00:28:47;;;;;;;22.60;10.60;;;;;;;;;;103629;1289;545467;-72
2024/01/21 00:32:23;;;;;;;20.50;10.70;;;;;;;;;;103671;1289;546216;-72
2024/01/21 00:36:00;;;;;;;20.70;11.20;;;;;;;;;;103676;1292;545481;-72
2024/01/21 00:39:39;;;;;;;23.70;10.90;;;;;;;;;;103798;1289;544991;-71
2024/01/21 00:43:15;;;;;;;21.20;11.50;;;;;;;;;;103752;1292;546190;-72
2024/01/21 00:46:50;;;;;;;20.60;10.70;;;;;;;;;;103850;1288;544780;-71
2024/01/21 00:50:36;;;;;;;21.00;10.90;;;;;;;;;;103485;1292;547855;-72
2024/01/21 00:54:14;;;;;;;20.10;10.30;;;;;;;;;;103630;1308;547814;-71
2024/01/21 00:57:45;;;;;;;17.90;10.40;;;;;;;;;;103813;1289;544776;-73
2024/01/21 01:01:23;;;;;;;22.90;12.00;;;;;;;;;;103747;1290;544866;-72
2024/01/21 01:05:00;;;;;;;19.40;11.60;;;;;;;;;;103758;1289;546542;-72
2024/01/21 01:08:39;;;;;;;19.80;11.70;;;;;;;;;;103776;1291;545000;-72
2024/01/21 01:12:15;;;;;;;20.70;12.70;;;;;;;;;;103824;1289;544969;-71
2024/01/21 01:15:50;;;;;;;22.30;12.40;;;;;;;;;;103709;1290;545040;-72
2024/01/21 01:19:29;;;;;;;18.80;11.40;;;;;;;;;;103753;1295;545380;-72
2024/01/21 01:23:08;;;;;;;18.60;11.10;;;;;;;;;;103763;1289;545466;-73
2024/01/21 01:26:44;;;;;;;22.30;11.50;;;;;;;;;;103768;1290;544814;-72
2024/01/21 01:30:23;;;;;;;19.90;11.70;;;;;;;;;;103867;1290;545500;-72
2024/01/21 01:34:00;;;;;;;20.50;11.60;;;;;;;;;;103706;1296;544756;-72
2024/01/21 01:37:38;;;;;;;20.70;11.40;;;;;;;;;;103824;1292;544815;-71
2024/01/21 01:41:15;;;;;;;19.00;11.50;;;;;;;;;;103751;1288;545730;-72
2024/01/21 01:44:55;;;;;;;21.00;11.70;;;;;;;;;;103784;1288;545677;-72
2024/01/21 01:48:30;;;;;;;20.10;12.30;;;;;;;;;;103840;1288;544760;-72
2024/01/21 01:52:07;;;;;;;19.50;11.70;;;;;;;;;;103765;1293;545161;-72
2024/01/21 01:55:44;;;;;;;19.90;11.20;;;;;;;;;;103663;1295;544938;-71
2024/01/21 01:59:22;;;;;;;22.30;11.60;;;;;;;;;;103726;1290;545011;-71
2024/01/21 02:02:59;;;;;;;25.20;13.60;;;;;;;;;;103583;1304;544944;-73
2024/01/21 02:06:38;;;;;;;26.70;15.90;;;;;;;;;;103798;1294;545207;-71
2024/01/21 02:10:14;;;;;;;23.70;14.80;;;;;;;;;;103769;1289;545858;-72
2024/01/21 02:13:52;;;;;;;24.30;14.10;;;;;;;;;;103731;1289;545183;-72
2024/01/21 02:17:29;;;;;;;22.90;14.10;;;;;;;;;;103300;1299;545529;-73
2024/01/21 02:21:07;;;;;;;21.00;13.00;;;;;;;;;;104002;1292;544717;-71
2024/01/21 02:24:45;;;;;;;24.60;14.90;;;;;;;;;;103672;1289;544978;-71
2024/01/21 02:28:21;;;;;;;30.00;16.80;;;;;;;;;;103715;1289;545568;-72
2024/01/21 02:31:59;;;;;;;24.50;15.40;;;;;;;;;;103873;1292;544911;-72
2024/01/21 02:35:36;;;;;;;24.60;14.80;;;;;;;;;;103800;1290;544890;-72
2024/01/21 02:39:14;;;;;;;33.10;16.90;;;;;;;;;;103606;1291;545068;-72
2024/01/21 02:42:51;;;;;;;29.30;16.60;;;;;;;;;;103720;1292;545239;-72
2024/01/21 02:46:29;;;;;;;29.40;16.80;;;;;;;;;;103724;1291;545636;-73
2024/01/21 02:50:07;;;;;;;25.80;15.80;;;;;;;;;;103671;1289;545065;-74
2024/01/21 02:53:44;;;;;;;24.10;15.40;;;;;;;;;;103656;1292;545128;-73
2024/01/21 02:57:22;;;;;;;25.00;15.40;;;;;;;;;;103709;1289;545499;-72
2024/01/21 03:00:58;;;;;;;22.80;14.00;;;;;;;;;;103609;1294;544726;-72
2024/01/21 03:04:42;;;;;;;23.60;13.60;;;;;;;;;;103954;1287;547780;-72
2024/01/21 03:08:19;;;;;;;21.90;13.20;;;;;;;;;;103555;1289;547772;-73
2024/01/21 03:11:51;;;;;;;20.40;12.80;;;;;;;;;;103772;1289;544847;-73
2024/01/21 03:15:28;;;;;;;25.40;15.90;;;;;;;;;;103559;1291;545057;-73
2024/01/21 03:19:06;;;;;;;25.80;16.30;;;;;;;;;;103638;1289;544744;-72
2024/01/21 03:22:43;;;;;;;27.00;15.80;;;;;;;;;;103842;1292;544989;-73
2024/01/21 03:26:21;;;;;;;26.80;14.40;;;;;;;;;;103723;1290;545380;-73
2024/01/21 03:29:58;;;;;;;21.50;13.10;;;;;;;;;;103609;1295;545257;-73
2024/01/21 03:33:35;;;;;;;22.20;14.00;;;;;;;;;;103740;1289;545530;-73
2024/01/21 03:37:13;;;;;;;23.30;13.90;;;;;;;;;;103639;1291;544814;-73
2024/01/21 03:40:50;;;;;;;24.90;14.70;;;;;;;;;;103749;1292;545156;-73
2024/01/21 03:44:28;;;;;;;24.20;14.90;;;;;;;;;;103670;1294;545591;-72
2024/01/21 03:48:06;;;;;;;23.30;13.60;;;;;;;;;;103861;1289;545713;-72
2024/01/21 03:51:43;;;;;;;22.50;13.10;;;;;;;;;;103765;1289;545812;-73
2024/01/21 03:55:21;;;;;;;21.10;13.10;;;;;;;;;;103764;1292;544884;-73
2024/01/21 03:58:58;;;;;;;23.10;14.10;;;;;;;;;;103666;1294;545877;-73
2024/01/21 04:02:36;;;;;;;22.30;13.80;;;;;;;;;;104232;1286;544933;-73
2024/01/21 04:06:18;;;;;;;24.50;15.70;;;;;;;;;;103445;1292;548237;-73
2024/01/21 04:09:50;;;;;;;22.20;13.90;;;;;;;;;;103851;1292;545356;-72
2024/01/21 04:13:28;;;;;;;21.80;13.00;;;;;;;;;;103847;1289;545217;-73
2024/01/21 04:17:11;;;;;;;21.40;13.50;;;;;;;;;;103503;1292;548111;-73
2024/01/21 04:20:45;;;;;;;24.50;15.50;;;;;;;;;;103666;1296;547893;-73
2024/01/21 04:24:26;;;;;;;25.70;16.90;;;;;;;;;;103598;1298;547781;-73
2024/01/21 04:27:58;;;;;;;31.50;19.00;;;;;;;;;;103602;1293;544962;-73
2024/01/21 04:31:34;;;;;;;29.30;17.40;;;;;;;;;;104072;1286;544795;-73
2024/01/21 04:35:13;;;;;;;29.90;17.60;;;;;;;;;;104026;1287;545127;-73
2024/01/21 04:38:56;;;;;;;28.60;16.30;;;;;;;;;;103616;1292;547995;-72
2024/01/21 04:42:28;;;;;;;25.50;16.00;;;;;;;;;;103669;1295;544927;-74
2024/01/21 04:46:06;;;;;;;28.40;17.60;;;;;;;;;;103758;1289;545060;-73
2024/01/21 04:49:42;;;;;;;29.90;19.10;;;;;;;;;;103713;1292;545579;-73
2024/01/21 04:53:26;;;;;;;29.90;20.10;;;;;;;;;;103301;1295;548070;-72
2024/01/21 04:56:57;;;;;;;34.20;20.10;;;;;;;;;;103600;1291;546298;-72
2024/01/21 05:00:35;;;;;;;29.70;18.30;;;;;;;;;;103713;1295;545725;-72
2024/01/21 05:04:08;;;;;;;27.30;16.80;;;;;;;;;;103855;1289;544802;-72
2024/01/21 05:07:51;;;;;;;75.00;40.30;;;;;;;;;;103800;1295;545398;-73
2024/01/21 05:11:29;;;;;;;58.00;33.00;;;;;;;;;;103584;1291;545083;-73
2024/01/21 05:15:05;;;;;;;59.20;33.10;;;;;;;;;;103733;1289;544989;-73
2024/01/21 05:18:43;;;;;;;68.90;38.00;;;;;;;;;;103712;1291;546320;-73
2024/01/21 05:22:20;;;;;;;56.50;31.80;;;;;;;;;;104047;1286;545006;-74
2024/01/21 05:25:57;;;;;;;42.60;25.10;;;;;;;;;;103722;1293;544965;-72
2024/01/21 05:29:35;;;;;;;39.50;23.90;;;;;;;;;;103782;1289;544874;-72
2024/01/21 05:33:12;;;;;;;41.40;23.20;;;;;;;;;;104108;1285;544910;-73
2024/01/21 05:36:49;;;;;;;40.70;22.50;;;;;;;;;;103770;1296;545071;-71
2024/01/21 05:40:27;;;;;;;47.80;25.00;;;;;;;;;;103742;1292;544703;-72
2024/01/21 05:44:04;;;;;;;40.40;22.00;;;;;;;;;;103700;1294;545700;-72
2024/01/21 05:47:38;;;;;;;38.10;22.20;;;;;;;;;;103909;1292;545874;-72
2024/01/21 05:51:19;;;;;;;30.30;18.50;;;;;;;;;;103943;1288;545463;-72
2024/01/21 05:54:57;;;;;;;31.60;17.80;;;;;;;;;;103590;1295;544724;-72
2024/01/21 05:58:37;;;;;;;32.10;18.90;;;;;;;;;;103704;1292;544815;-72
2024/01/21 06:02:18;;;;;;;31.90;19.30;;;;;;;;;;103451;1291;546197;-72
2024/01/21 06:05:49;;;;;;;30.90;18.10;;;;;;;;;;103759;1292;544964;-72
2024/01/21 06:09:27;;;;;;;29.40;17.20;;;;;;;;;;103439;1295;544867;-72
2024/01/21 06:13:04;;;;;;;26.90;14.90;;;;;;;;;;103828;1292;545298;-72
2024/01/21 06:16:41;;;;;;;26.50;14.90;;;;;;;;;;103745;1296;544803;-72
2024/01/21 06:20:25;;;;;;;28.70;15.90;;;;;;;;;;103482;1298;547835;-72
2024/01/21 06:23:56;;;;;;;23.90;13.30;;;;;;;;;;103586;1295;545004;-71
2024/01/21 06:27:34;;;;;;;26.80;14.70;;;;;;;;;;103752;1292;544970;-71
2024/01/21 06:31:11;;;;;;;28.20;15.70;;;;;;;;;;103727;1289;545757;-72
2024/01/21 06:34:49;;;;;;;33.60;17.00;;;;;;;;;;103572;1292;544823;-72
2024/01/21 06:38:26;;;;;;;38.30;20.40;;;;;;;;;;103679;1292;545915;-71
2024/01/21 06:42:04;;;;;;;42.30;21.70;;;;;;;;;;103704;1293;544957;-71
2024/01/21 06:45:41;;;;;;;46.90;23.70;;;;;;;;;;103725;1290;545934;-72
2024/01/21 06:49:19;;;;;;;43.00;23.30;;;;;;;;;;103816;1289;544758;-71
2024/01/21 06:52:52;;;;;;;51.90;29.00;;;;;;;;;;103684;1289;545411;-72
2024/01/21 06:56:40;;;;;;;58.30;31.80;;;;;;;;;;103604;1290;545547;-74
2024/01/21 07:00:11;;;;;;;53.30;30.10;;;;;;;;;;103584;1291;545941;-72
2024/01/21 07:03:48;;;;;;;48.80;28.50;;;;;;;;;;103752;1290;544830;-72
2024/01/21 07:07:26;;;;;;;53.30;29.60;;;;;;;;;;103674;1292;545024;-71
2024/01/21 07:11:07;;;;;;;52.50;29.80;;;;;;;;;;103811;1295;545453;-72
2024/01/21 07:14:41;;;;;;;40.90;22.90;;;;;;;;;;103745;1295;544908;-72
2024/01/21 07:18:18;;;;;;;40.90;23.90;;;;;;;;;;103782;1289;545034;-72
2024/01/21 07:21:55;;;;;;;59.00;32.70;;;;;;;;;;103608;1295;544830;-72
2024/01/21 07:25:33;;;;;;;79.60;43.40;;;;;;;;;;103694;1290;545081;-72
2024/01/21 07:29:13;;;;;;;79.80;43.50;;;;;;;;;;103683;1289;544604;-72
2024/01/21 07:32:47;;;;;;;81.70;40.10;;;;;;;;;;103742;1291;544925;-71
2024/01/21 07:36:27;;;;;;;78.60;38.20;;;;;;;;;;104040;1286;548508;-71
2024/01/21 07:40:04;;;;;;;79.40;34.90;;;;;;;;;;103624;1292;544888;-72
2024/01/21 07:43:40;;;;;;;68.00;33.70;;;;;;;;;;103649;1295;544769;-72
2024/01/21 07:47:18;;;;;;;64.40;31.50;;;;;;;;;;103828;1289;545607;-72
2024/01/21 07:50:55;;;;;;;57.80;31.70;;;;;;;;;;103670;1295;545417;-71
2024/01/21 07:54:33;;;;;;;55.80;29.60;;;;;;;;;;103684;1290;545889;-72
2024/01/21 07:58:10;;;;;;;48.00;26.50;;;;;;;;;;103594;1291;544986;-72
2024/01/21 08:01:48;;;;;;;125.50;49.40;;;;;;;;;;103703;1292;545453;-72
2024/01/21 08:05:33;;;;;;;180.90;65.20;;;;;;;;;;103546;1292;547803;-72
2024/01/21 08:09:03;;;;;;;219.00;79.90;;;;;;;;;;103724;1290;544753;-72
2024/01/21 08:12:36;;;;;;;278.70;102.80;;;;;;;;;;103731;1289;544902;-72
2024/01/21 08:16:17;;;;;;;221.10;84.00;;;;;;;;;;103747;1292;545048;-72
2024/01/21 08:19:55;;;;;;;55.80;27.40;;;;;;;;;;103693;1291;545054;-73
2024/01/21 08:23:34;;;;;;;42.60;21.30;;;;;;;;;;103838;1292;545040;-72
2024/01/21 08:27:10;;;;;;;68.00;32.70;;;;;;;;;;104246;1285;545238;-72
2024/01/21 08:30:48;;;;;;;172.20;74.30;;;;;;;;;;103753;1292;545955;-72
2024/01/21 08:34:25;;;;;;;130.70;57.50;;;;;;;;;;103676;1292;544711;-72
2024/01/21 08:38:03;;;;;;;89.10;40.90;;;;;;;;;;103686;1289;546217;-72
2024/01/21 08:41:40;;;;;;;90.60;39.30;;;;;;;;;;103778;1292;544933;-73
2024/01/21 08:45:19;;;;;;;48.70;23.70;;;;;;;;;;104981;1292;545386;-72
2024/01/21 08:48:55;;;;;;;45.30;21.90;;;;;;;;;;103811;1292;544896;-72
2024/01/21 08:52:28;;;;;;;52.00;24.20;;;;;;;;;;103727;1289;545903;-73
2024/01/21 08:56:15;;;;;;;57.20;25.50;;;;;;;;;;103399;1291;545464;-73
2024/01/21 08:59:43;;;;;;;50.20;22.00;;;;;;;;;;103920;1292;544867;-72
2024/01/21 09:03:30;;;;;;;27.60;12.90;;;;;;;;;;103655;1290;547910;-72
2024/01/21 09:07:02;;;;;;;27.20;12.80;;;;;;;;;;103773;1289;544714;-73
2024/01/21 09:10:40;;;;;;;27.70;13.00;;;;;;;;;;103789;1301;545847;-73
2024/01/21 09:14:18;;;;;;;25.60;11.50;;;;;;;;;;104005;1289;545591;-73
2024/01/21 09:17:54;;;;;;;24.30;11.90;;;;;;;;;;103617;1296;544799;-73
2024/01/21 09:21:34;;;;;;;25.00;11.50;;;;;;;;;;103693;1295;546682;-73
2024/01/21 09:25:09;;;;;;;21.60;10.70;;;;;;;;;;103590;1291;544891;-73
2024/01/21 09:28:47;;;;;;;23.30;11.40;;;;;;;;;;103756;1295;544796;-72
2024/01/21 09:32:25;;;;;;;19.70;9.50;;;;;;;;;;103804;1289;545439;-72
2024/01/21 09:36:02;;;;;;;17.90;8.40;;;;;;;;;;103777;1289;545401;-72
2024/01/21 09:39:39;;;;;;;17.70;9.30;;;;;;;;;;103719;1292;544738;-72
2024/01/21 09:43:17;;;;;;;19.10;9.60;;;;;;;;;;103748;1291;544772;-73
2024/01/21 09:46:58;;;;;;;19.40;9.40;;;;;;;;;;103843;1289;545950;-73
2024/01/21 09:50:33;;;;;;;16.30;7.90;;;;;;;;;;103685;1292;545527;-73
2024/01/21 09:54:10;;;;;;;17.60;8.80;;;;;;;;;;103712;1292;545239;-73
2024/01/21 09:57:47;;;;;;;17.90;8.80;;;;;;;;;;103854;1289;544741;-74
2024/01/21 10:01:21;;;;;;;15.80;7.50;;;;;;;;;;103879;1292;545004;-73
2024/01/21 10:05:02;;;;;;;14.20;6.70;;;;;;;;;;103757;1289;545237;-74
2024/01/21 10:08:40;;;;;;;14.80;6.50;;;;;;;;;;103709;1290;545697;-73
2024/01/21 10:12:17;;;;;;;14.60;7.00;;;;;;;;;;103731;1289;544997;-74
2024/01/21 10:15:54;;;;;;;16.90;7.80;;;;;;;;;;103702;1290;545328;-74
2024/01/21 10:19:33;;;;;;;16.40;7.80;;;;;;;;;;103800;1291;545708;-74
2024/01/21 10:23:10;;;;;;;19.20;7.80;;;;;;;;;;103668;1296;545081;-72
2024/01/21 10:27:07;;;;;;;19.00;9.10;;;;;;;;;;103631;1292;547991;-72
2024/01/21 10:30:24;;;;;;;18.20;9.30;;;;;;;;;;103736;1289;546374;-74
2024/01/21 10:34:02;;;;;;;24.50;11.20;;;;;;;;;;103797;1289;545349;-73
2024/01/21 10:37:39;;;;;;;33.20;14.60;;;;;;;;;;103704;1291;546319;-74
2024/01/21 10:41:29;;;;;;;35.00;14.40;;;;;;;;;;103326;1294;545658;-74
2024/01/21 10:44:54;;;;;;;33.50;14.50;;;;;;;;;;103699;1290;545979;-75
2024/01/21 10:48:32;;;;;;;26.40;13.10;;;;;;;;;;103717;1288;544984;-74
2024/01/21 10:52:11;;;;;;;19.50;8.50;;;;;;;;;;103682;1292;544909;-73
2024/01/21 10:55:47;;;;;;;23.20;11.00;;;;;;;;;;103801;1292;545819;-75
2024/01/21 10:59:24;;;;;;;25.00;12.10;;;;;;;;;;103765;1292;545517;-74
2024/01/21 11:03:20;;;;;;;15.20;7.70;;;;;;;;;;103808;1292;544823;-73
2024/01/21 11:06:44;;;;;;;12.10;6.30;;;;;;;;;;103647;1291;545099;-73
2024/01/21 11:10:17;;;;;;;17.30;7.00;;;;;;;;;;104464;1283;544945;-74
2024/01/21 11:13:54;;;;;;;14.20;6.40;;;;;;;;;;103535;1295;546021;-73
2024/01/21 11:17:32;;;;;;;12.30;5.40;;;;;;;;;;103835;1289;545963;-76
2024/01/21 11:21:08;;;;;;;11.70;5.90;;;;;;;;;;103741;1289;544850;-73
2024/01/21 11:24:46;;;;;;;12.60;5.40;;;;;;;;;;103789;1289;544926;-74
2024/01/21 11:28:30;;;;;;;11.80;5.00;;;;;;;;;;103999;1286;544716;-71
2024/01/21 11:32:00;;;;;;;12.10;4.30;;;;;;;;;;103903;1288;546441;-71
2024/01/21 11:35:38;;;;;;;11.70;4.60;;;;;;;;;;103716;1289;545122;-72
2024/01/21 11:39:15;;;;;;;9.00;3.40;;;;;;;;;;103806;1293;545041;-77
2024/01/21 11:42:52;;;;;;;13.00;4.60;;;;;;;;;;103736;1291;545166;-73
2024/01/21 11:46:30;;;;;;;12.30;4.90;;;;;;;;;;103752;1292;545952;-73
2024/01/21 11:50:09;;;;;;;11.40;4.50;;;;;;;;;;103756;1292;545533;-73
2024/01/21 11:53:41;;;;;;;12.90;4.40;;;;;;;;;;103901;1289;545703;-73
2024/01/21 11:57:23;;;;;;;11.70;4.70;;;;;;;;;;104029;1289;544765;-72
2024/01/21 12:01:00;;;;;;;11.80;4.30;;;;;;;;;;103837;1289;544764;-72
2024/01/21 12:04:38;;;;;;;12.40;4.90;;;;;;;;;;103710;1301;545062;-74
2024/01/21 12:08:15;;;;;;;13.90;5.70;;;;;;;;;;103750;1296;545417;-71
2024/01/21 12:11:52;;;;;;;12.70;5.20;;;;;;;;;;103672;1294;545056;-71
2024/01/21 12:15:33;;;;;;;10.70;5.20;;;;;;;;;;103727;1302;545469;-73
2024/01/21 12:19:07;;;;;;;10.70;4.90;;;;;;;;;;103800;1291;544960;-73
2024/01/21 12:22:45;;;;;;;10.30;5.00;;;;;;;;;;103795;1290;544876;-73
2024/01/21 12:26:21;;;;;;;13.30;5.50;;;;;;;;;;104624;1283;545558;-71
2024/01/21 12:30:00;;;;;;;12.10;5.30;;;;;;;;;;103707;1292;545129;-75
2024/01/21 12:33:43;;;;;;;11.40;5.80;;;;;;;;;;103450;1291;547850;-74
2024/01/21 12:37:12;;;;;;;12.40;5.80;;;;;;;;;;103844;1292;545052;-73
2024/01/21 12:40:52;;;;;;;11.90;5.40;;;;;;;;;;103744;1289;545595;-72
2024/01/21 12:44:30;;;;;;;11.40;4.50;;;;;;;;;;103509;1297;546054;-71
2024/01/21 12:48:07;;;;;;;14.00;6.40;;;;;;;;;;103647;1291;544812;-72
2024/01/21 12:51:45;;;;;;;14.40;7.10;;;;;;;;;;103734;1292;545069;-73
2024/01/21 12:55:22;;;;;;;12.20;5.90;;;;;;;;;;103590;1303;545341;-74
2024/01/21 12:59:00;;;;;;;11.40;5.60;;;;;;;;;;103623;1292;545444;-72
2024/01/21 13:02:43;;;;;;;14.70;7.80;;;;;;;;;;103468;1292;547850;-71
2024/01/21 13:06:15;;;;;;;15.30;7.30;;;;;;;;;;103731;1289;544963;-71
2024/01/21 13:09:52;;;;;;;14.30;6.90;;;;;;;;;;103769;1290;544967;-72
2024/01/21 13:13:30;;;;;;;20.10;8.20;;;;;;;;;;103747;1291;545445;-72
2024/01/21 13:17:07;;;;;;;20.50;9.70;;;;;;;;;;103676;1289;545429;-75
2024/01/21 13:20:45;;;;;;;15.60;6.30;;;;;;;;;;104121;1289;545149;-72
2024/01/21 13:24:22;;;;;;;28.30;10.90;;;;;;;;;;103685;1291;544922;-73
2024/01/21 13:30:43;;;;;;;23.60;10.10;;;;;;;;;;103735;1290;545668;-72
2024/01/21 13:31:38;;;;;;;16.80;8.50;;;;;;;;;;103690;1292;544872;-72
2024/01/21 13:35:34;;;;;;;15.30;7.10;;;;;;;;;;103564;1295;549235;-73
2024/01/21 13:38:52;;;;;;;18.80;8.70;;;;;;;;;;103706;1292;545067;-71
2024/01/21 13:42:29;;;;;;;14.70;7.00;;;;;;;;;;103747;1291;545019;-70
2024/01/21 13:46:07;;;;;;;18.00;8.40;;;;;;;;;;103742;1291;544734;-71
2024/01/21 13:49:40;;;;;;;13.50;6.20;;;;;;;;;;103807;1289;544747;-72
2024/01/21 13:53:21;;;;;;;14.50;6.60;;;;;;;;;;103808;1290;545067;-70
2024/01/21 13:56:56;;;;;;;11.90;5.10;;;;;;;;;;103683;1289;544975;-71
2024/01/21 14:00:42;;;;;;;11.10;4.80;;;;;;;;;;103837;1289;548019;-71
2024/01/21 14:04:14;;;;;;;11.60;5.00;;;;;;;;;;103767;1289;545538;-70
2024/01/21 14:07:51;;;;;;;10.00;4.70;;;;;;;;;;103607;1291;545960;-73
2024/01/21 14:11:29;;;;;;;12.70;5.40;;;;;;;;;;103723;1292;544778;-73
2024/01/21 14:15:07;;;;;;;11.40;4.50;;;;;;;;;;103535;1297;545906;-70
2024/01/21 14:18:49;;;;;;;8.90;4.50;;;;;;;;;;103691;1289;545421;-71
2024/01/21 14:22:21;;;;;;;10.70;5.00;;;;;;;;;;103691;1291;544806;-72
2024/01/21 14:25:58;;;;;;;11.70;5.10;;;;;;;;;;103815;1293;545159;-73
2024/01/21 14:29:38;;;;;;;11.40;5.40;;;;;;;;;;103809;1291;545457;-71
2024/01/21 14:33:13;;;;;;;13.70;6.40;;;;;;;;;;103724;1292;546040;-72
2024/01/21 14:36:51;;;;;;;10.90;4.70;;;;;;;;;;103773;1289;545028;-70
2024/01/21 14:40:28;;;;;;;12.90;6.10;;;;;;;;;;103752;1289;545315;-72
2024/01/21 14:44:12;;;;;;;12.50;5.70;;;;;;;;;;103527;1292;547960;-73
2024/01/21 14:47:43;;;;;;;12.90;5.30;;;;;;;;;;103718;1292;545192;-73
2024/01/21 14:51:21;;;;;;;11.20;4.90;;;;;;;;;;103695;1289;544839;-74
2024/01/21 14:54:58;;;;;;;11.50;5.30;;;;;;;;;;103475;1291;544775;-71
2024/01/21 14:58:36;;;;;;;14.40;5.80;;;;;;;;;;103790;1289;544975;-71
2024/01/21 15:02:14;;;;;;;12.10;4.90;;;;;;;;;;103895;1289;545021;-72
2024/01/21 15:05:47;;;;;;;12.90;6.20;;;;;;;;;;103707;1292;545742;-72
2024/01/21 15:09:29;;;;;;;13.40;5.70;;;;;;;;;;103668;1290;544960;-71
2024/01/21 15:13:06;;;;;;;14.50;6.20;;;;;;;;;;103946;1289;544987;-71
2024/01/21 15:16:43;;;;;;;15.90;6.70;;;;;;;;;;103716;1295;545075;-73
2024/01/21 15:20:20;;;;;;;15.80;6.30;;;;;;;;;;103714;1290;545295;-72
2024/01/21 15:23:54;;;;;;;16.10;7.00;;;;;;;;;;103640;1291;544596;-72
2024/01/21 15:27:35;;;;;;;17.40;7.20;;;;;;;;;;103690;1292;545406;-71
2024/01/21 15:31:13;;;;;;;17.90;7.40;;;;;;;;;;103634;1291;545037;-73
2024/01/21 15:34:50;;;;;;;13.40;6.50;;;;;;;;;;103903;1294;545036;-72
2024/01/21 15:38:28;;;;;;;14.80;6.30;;;;;;;;;;104140;1286;544737;-70
2024/01/21 15:42:07;;;;;;;13.50;6.80;;;;;;;;;;103686;1290;545322;-72
2024/01/21 15:45:43;;;;;;;14.90;6.70;;;;;;;;;;103681;1292;544935;-73
2024/01/21 15:49:16;;;;;;;16.00;7.30;;;;;;;;;;103887;1288;544865;-72
2024/01/21 15:52:58;;;;;;;15.40;7.40;;;;;;;;;;103659;1291;544981;-71
2024/01/21 15:56:36;;;;;;;17.90;8.00;;;;;;;;;;103860;1289;544741;-71
2024/01/21 16:00:14;;;;;;;13.50;6.20;;;;;;;;;;103706;1289;544982;-72
2024/01/21 16:03:52;;;;;;;12.20;5.90;;;;;;;;;;103799;1289;544914;-70
2024/01/21 16:07:33;;;;;;;11.70;6.10;;;;;;;;;;103439;1292;548062;-72
2024/01/21 16:11:05;;;;;;;12.80;6.00;;;;;;;;;;103786;1289;545650;-72
2024/01/21 16:14:45;;;;;;;12.70;6.00;;;;;;;;;;103831;1289;546021;-71
2024/01/21 16:18:20;;;;;;;14.00;7.00;;;;;;;;;;103829;1292;544972;-72
2024/01/21 16:21:55;;;;;;;11.40;5.50;;;;;;;;;;104078;1286;544909;-70
2024/01/21 16:25:35;;;;;;;13.00;6.20;;;;;;;;;;103744;1291;544814;-71
2024/01/21 16:29:12;;;;;;;12.30;6.20;;;;;;;;;;103786;1291;544942;-72
2024/01/21 16:32:46;;;;;;;13.10;6.50;;;;;;;;;;103800;1289;545394;-73
2024/01/21 16:36:28;;;;;;;12.00;5.80;;;;;;;;;;103551;1292;546172;-71
2024/01/21 16:40:08;;;;;;;12.30;6.00;;;;;;;;;;104043;1289;544746;-72
2024/01/21 16:43:42;;;;;;;12.30;6.10;;;;;;;;;;103584;1291;544987;-71
2024/01/21 16:47:19;;;;;;;14.20;6.70;;;;;;;;;;103844;1289;546020;-72
2024/01/21 16:51:01;;;;;;;12.70;7.10;;;;;;;;;;103711;1289;544914;-71
2024/01/21 16:54:35;;;;;;;14.50;6.90;;;;;;;;;;103780;1295;544835;-71
2024/01/21 16:58:13;;;;;;;13.00;6.60;;;;;;;;;;103610;1292;544892;-71
2024/01/21 17:01:52;;;;;;;12.90;6.40;;;;;;;;;;103739;1289;545450;-72
2024/01/21 17:05:28;;;;;;;13.40;6.80;;;;;;;;;;103740;1288;545867;-72
2024/01/21 17:09:06;;;;;;;12.10;6.50;;;;;;;;;;103704;1292;544778;-71
2024/01/21 17:12:43;;;;;;;12.80;6.40;;;;;;;;;;103685;1290;544882;-72
2024/01/21 17:16:17;;;;;;;12.10;5.70;;;;;;;;;;103680;1290;545151;-71
2024/01/21 17:20:16;;;;;;;12.20;6.10;;;;;;;;;;103789;1291;545225;-70
2024/01/21 17:23:34;;;;;;;14.00;6.90;;;;;;;;;;103489;1295;545086;-72
2024/01/21 17:27:13;;;;;;;14.30;6.90;;;;;;;;;;103619;1294;545602;-73
2024/01/21 17:30:55;;;;;;;16.30;7.90;;;;;;;;;;103586;1291;548013;-72
2024/01/21 17:34:27;;;;;;;13.90;6.80;;;;;;;;;;103640;1292;544959;-73
2024/01/21 17:38:04;;;;;;;15.60;8.20;;;;;;;;;;103688;1294;545903;-72
2024/01/21 17:41:42;;;;;;;14.60;7.50;;;;;;;;;;103652;1292;546082;-72
2024/01/21 17:45:21;;;;;;;17.90;10.10;;;;;;;;;;103681;1294;545118;-73
2024/01/21 17:48:57;;;;;;;13.30;7.00;;;;;;;;;;103678;1290;544836;-72
2024/01/21 17:52:34;;;;;;;11.90;6.40;;;;;;;;;;104048;1289;544678;-73
2024/01/21 17:56:13;;;;;;;13.10;7.70;;;;;;;;;;103596;1293;544851;-72
2024/01/21 17:59:45;;;;;;;15.10;8.40;;;;;;;;;;103766;1289;544989;-72
2024/01/21 18:03:26;;;;;;;16.30;11.00;;;;;;;;;;103619;1292;545071;-73
2024/01/21 18:07:04;;;;;;;17.30;8.80;;;;;;;;;;103809;1289;545368;-72
2024/01/21 18:10:42;;;;;;;18.70;8.80;;;;;;;;;;103670;1291;545157;-72
2024/01/21 18:14:19;;;;;;;18.70;9.50;;;;;;;;;;103838;1289;545662;-73
2024/01/21 18:17:57;;;;;;;23.70;11.60;;;;;;;;;;103476;1294;545156;-72
2024/01/21 18:21:35;;;;;;;17.60;9.20;;;;;;;;;;103697;1295;545510;-72
2024/01/21 18:25:13;;;;;;;17.00;8.50;;;;;;;;;;103694;1291;545899;-71
2024/01/21 18:28:48;;;;;;;15.30;7.60;;;;;;;;;;103797;1293;545341;-72
2024/01/21 18:32:27;;;;;;;15.30;7.40;;;;;;;;;;103882;1289;545005;-70
2024/01/21 18:36:04;;;;;;;13.80;7.10;;;;;;;;;;103768;1289;545005;-71
2024/01/21 18:39:41;;;;;;;19.80;7.90;;;;;;;;;;104141;1291;544834;-72
2024/01/21 18:43:18;;;;;;;19.80;8.50;;;;;;;;;;103961;1294;545232;-72
2024/01/21 18:46:56;;;;;;;17.30;8.60;;;;;;;;;;103628;1289;544973;-72
2024/01/21 18:50:33;;;;;;;15.10;8.00;;;;;;;;;;103478;1301;544848;-69
2024/01/21 18:54:07;;;;;;;20.40;9.40;;;;;;;;;;103772;1292;545034;-73
2024/01/21 18:57:48;;;;;;;17.40;8.40;;;;;;;;;;103704;1290;544871;-72
2024/01/21 19:01:26;;;;;;;20.30;9.30;;;;;;;;;;103703;1292;545172;-73
2024/01/21 19:05:03;;;;;;;20.80;10.10;;;;;;;;;;103840;1289;546283;-72
2024/01/21 19:08:41;;;;;;;24.30;9.90;;;;;;;;;;103715;1288;544992;-71
2024/01/21 19:12:19;;;;;;;18.80;9.50;;;;;;;;;;103951;1289;545001;-72
2024/01/21 19:15:56;;;;;;;18.30;9.10;;;;;;;;;;103740;1291;544887;-72
2024/01/21 19:19:33;;;;;;;21.30;10.00;;;;;;;;;;103936;1289;544832;-70
2024/01/21 19:23:10;;;;;;;17.60;9.30;;;;;;;;;;103641;1292;544967;-72
2024/01/21 19:26:48;;;;;;;22.30;11.30;;;;;;;;;;103753;1294;545018;-72
2024/01/21 19:30:26;;;;;;;22.80;11.30;;;;;;;;;;104142;1289;544907;-70
2024/01/21 19:34:02;;;;;;;17.20;8.60;;;;;;;;;;103710;1292;545255;-72
2024/01/21 19:37:46;;;;;;;17.40;9.20;;;;;;;;;;103470;1291;547896;-73
2024/01/21 19:41:20;;;;;;;19.30;9.00;;;;;;;;;;103732;1295;545843;-72
2024/01/21 19:44:52;;;;;;;19.90;9.70;;;;;;;;;;103882;1288;544748;-71
2024/01/21 19:48:33;;;;;;;15.50;8.80;;;;;;;;;;103716;1290;545080;-72
2024/01/21 19:52:10;;;;;;;19.70;10.00;;;;;;;;;;103768;1289;545626;-71
2024/01/21 19:55:48;;;;;;;19.20;9.60;;;;;;;;;;103733;1289;544795;-71
2024/01/21 19:59:25;;;;;;;18.00;9.80;;;;;;;;;;103612;1304;544984;-71
2024/01/21 20:03:03;;;;;;;16.90;9.20;;;;;;;;;;103661;1292;545151;-73
2024/01/21 20:06:46;;;;;;;16.10;8.70;;;;;;;;;;103594;1295;548143;-72
2024/01/21 20:10:19;;;;;;;14.80;8.20;;;;;;;;;;103851;1292;544800;-71
2024/01/21 20:13:57;;;;;;;14.40;8.70;;;;;;;;;;103788;1292;544873;-72
2024/01/21 20:17:53;;;;;;;20.90;11.20;;;;;;;;;;103983;1295;547987;-75
2024/01/21 20:21:10;;;;;;;17.10;8.90;;;;;;;;;;103598;1292;545057;-73
2024/01/21 20:24:47;;;;;;;17.50;9.60;;;;;;;;;;103987;1288;545336;-73
2024/01/21 20:28:21;;;;;;;18.80;9.60;;;;;;;;;;103756;1288;545111;-71
2024/01/21 20:32:02;;;;;;;17.00;9.40;;;;;;;;;;103778;1289;545742;-71
2024/01/21 20:35:40;;;;;;;19.60;9.30;;;;;;;;;;103352;1291;545205;-71
2024/01/21 20:39:36;;;;;;;21.40;10.70;;;;;;;;;;103738;1291;548031;-71